CYQG

Windsor Airport

Windsor, , Canada
METAR CYQG 190700Z 00000KT 15SM SKC 15/13 A3007 RMK SLP182 DENSITY ALT 700FT
Observed Flight Rules
Jul-19 @ 07:00 UTC (33 minutes ago) Visual Flight Rules
Visibility Clouds
15 miles
  • Clear skies
Temperatures Readings
Current 15°C / 59°F
Dewpoint 13°C / 55°F
Humidity 88%
Altimeter 30.07" Hg
Pressure 1018.2 hPa
Elevation 190
METAR CYQG 190700Z 00000KT 15SM SKC 15/13 A3007 RMK SLP182 DENSITY ALT 700FT
Observed Flight Rules
Jul-19 @ 07:00 UTC
(33 minutes ago)
VFR
Clouds
  • Clear skies
Temperature Dewpoint
15°C / 59°F 13°C / 55°F
Humidity Altimeter Pressure
88% 30.07" Hg 1018.2 hPa